sensor_id;sensor_type;location;lat;lon;timestamp;P1;durP1;ratioP1;P2;durP2;ratioP2
25467;SDS011;13384;24.794;110.498;2023-07-13T00:00:45;5.72;;;5.53;;
25467;SDS011;13384;24.794;110.498;2023-07-13T00:03:17;6.10;;;5.80;;
25467;SDS011;13384;24.794;110.498;2023-07-13T00:05:56;6.38;;;6.03;;
25467;SDS011;13384;24.794;110.498;2023-07-13T00:08:30;5.78;;;5.47;;
25467;SDS011;13384;24.794;110.498;2023-07-13T00:11:02;6.00;;;5.70;;
25467;SDS011;13384;24.794;110.498;2023-07-13T00:13:38;6.38;;;6.05;;
25467;SDS011;13384;24.794;110.498;2023-07-13T00:16:10;6.60;;;6.30;;
25467;SDS011;13384;24.794;110.498;2023-07-13T00:18:43;6.60;;;6.30;;
25467;SDS011;13384;24.794;110.498;2023-07-13T00:21:15;6.45;;;6.15;;
25467;SDS011;13384;24.794;110.498;2023-07-13T00:23:47;6.50;;;6.10;;
25467;SDS011;13384;24.794;110.498;2023-07-13T00:26:21;6.43;;;6.03;;
25467;SDS011;13384;24.794;110.498;2023-07-13T00:28:52;6.28;;;5.97;;
25467;SDS011;13384;24.794;110.498;2023-07-13T00:31:24;6.00;;;5.70;;
25467;SDS011;13384;24.794;110.498;2023-07-13T00:34:01;6.50;;;6.10;;
25467;SDS011;13384;24.794;110.498;2023-07-13T00:36:33;6.38;;;6.07;;
25467;SDS011;13384;24.794;110.498;2023-07-13T00:39:05;6.10;;;5.70;;
25467;SDS011;13384;24.794;110.498;2023-07-13T00:41:36;6.53;;;6.22;;
25467;SDS011;13384;24.794;110.498;2023-07-13T00:44:11;6.80;;;6.40;;
25467;SDS011;13384;24.794;110.498;2023-07-13T00:46:45;5.88;;;5.57;;
25467;SDS011;13384;24.794;110.498;2023-07-13T00:49:18;6.50;;;6.20;;
25467;SDS011;13384;24.794;110.498;2023-07-13T00:51:55;6.05;;;5.75;;
25467;SDS011;13384;24.794;110.498;2023-07-13T00:54:30;6.00;;;5.70;;
25467;SDS011;13384;24.794;110.498;2023-07-13T00:57:14;6.93;;;6.53;;
25467;SDS011;13384;24.794;110.498;2023-07-13T00:59:55;6.80;;;6.50;;
25467;SDS011;13384;24.794;110.498;2023-07-13T01:02:37;6.55;;;6.18;;
25467;SDS011;13384;24.794;110.498;2023-07-13T01:05:13;6.20;;;5.90;;
25467;SDS011;13384;24.794;110.498;2023-07-13T01:07:51;6.00;;;5.70;;
25467;SDS011;13384;24.794;110.498;2023-07-13T01:10:24;6.55;;;6.15;;
25467;SDS011;13384;24.794;110.498;2023-07-13T01:12:56;6.80;;;6.50;;
25467;SDS011;13384;24.794;110.498;2023-07-13T01:15:38;6.80;;;6.40;;
25467;SDS011;13384;24.794;110.498;2023-07-13T01:18:14;6.50;;;6.20;;
25467;SDS011;13384;24.794;110.498;2023-07-13T01:23:22;6.93;;;6.53;;
25467;SDS011;13384;24.794;110.498;2023-07-13T01:26:06;6.72;;;6.32;;
25467;SDS011;13384;24.794;110.498;2023-07-13T01:28:38;6.82;;;6.43;;
25467;SDS011;13384;24.794;110.498;2023-07-13T01:31:10;6.40;;;6.10;;
25467;SDS011;13384;24.794;110.498;2023-07-13T01:33:42;6.50;;;6.20;;
25467;SDS011;13384;24.794;110.498;2023-07-13T01:36:14;6.30;;;6.00;;
25467;SDS011;13384;24.794;110.498;2023-07-13T01:38:45;5.93;;;5.65;;
25467;SDS011;13384;24.794;110.498;2023-07-13T01:41:18;14.10;;;12.93;;
25467;SDS011;13384;24.794;110.498;2023-07-13T01:43:50;6.80;;;6.40;;
25467;SDS011;13384;24.794;110.498;2023-07-13T01:46:21;5.97;;;5.68;;
25467;SDS011;13384;24.794;110.498;2023-07-13T01:48:53;6.15;;;5.85;;
25467;SDS011;13384;24.794;110.498;2023-07-13T01:51:37;6.97;;;6.57;;
25467;SDS011;13384;24.794;110.498;2023-07-13T01:54:08;6.60;;;6.30;;
25467;SDS011;13384;24.794;110.498;2023-07-13T01:56:40;6.90;;;6.50;;
25467;SDS011;13384;24.794;110.498;2023-07-13T01:59:12;6.60;;;6.20;;
25467;SDS011;13384;24.794;110.498;2023-07-13T02:01:43;6.78;;;6.40;;
25467;SDS011;13384;24.794;110.498;2023-07-13T02:04:15;6.35;;;6.05;;
25467;SDS011;13384;24.794;110.498;2023-07-13T02:06:47;11.32;;;10.45;;
25467;SDS011;13384;24.794;110.498;2023-07-13T02:09:18;11.57;;;10.68;;
25467;SDS011;13384;24.794;110.498;2023-07-13T02:11:50;6.68;;;6.38;;
25467;SDS011;13384;24.794;110.498;2023-07-13T02:14:22;6.90;;;6.50;;
25467;SDS011;13384;24.794;110.498;2023-07-13T02:16:53;6.60;;;6.30;;
25467;SDS011;13384;24.794;110.498;2023-07-13T02:19:25;6.95;;;6.55;;
25467;SDS011;13384;24.794;110.498;2023-07-13T02:21:57;6.20;;;5.90;;
25467;SDS011;13384;24.794;110.498;2023-07-13T02:24:28;6.65;;;6.35;;
25467;SDS011;13384;24.794;110.498;2023-07-13T02:27:00;6.53;;;6.15;;
25467;SDS011;13384;24.794;110.498;2023-07-13T02:29:31;6.25;;;5.95;;
25467;SDS011;13384;24.794;110.498;2023-07-13T02:32:03;6.55;;;6.22;;
25467;SDS011;13384;24.794;110.498;2023-07-13T02:34:35;6.50;;;6.20;;
25467;SDS011;13384;24.794;110.498;2023-07-13T02:37:06;6.13;;;5.82;;
25467;SDS011;13384;24.794;110.498;2023-07-13T02:39:37;6.45;;;5.97;;
25467;SDS011;13384;24.794;110.498;2023-07-13T02:42:09;6.60;;;6.20;;
25467;SDS011;13384;24.794;110.498;2023-07-13T02:44:40;6.22;;;5.93;;
25467;SDS011;13384;24.794;110.498;2023-07-13T02:47:11;6.72;;;6.32;;
25467;SDS011;13384;24.794;110.498;2023-07-13T02:49:43;6.20;;;5.90;;
25467;SDS011;13384;24.794;110.498;2023-07-13T02:52:15;6.60;;;6.30;;
25467;SDS011;13384;24.794;110.498;2023-07-13T02:54:46;6.78;;;6.47;;
25467;SDS011;13384;24.794;110.498;2023-07-13T02:57:17;6.53;;;6.22;;
25467;SDS011;13384;24.794;110.498;2023-07-13T02:59:49;6.50;;;6.20;;
25467;SDS011;13384;24.794;110.498;2023-07-13T03:02:21;6.40;;;6.10;;
25467;SDS011;13384;24.794;110.498;2023-07-13T03:04:55;6.20;;;5.90;;
25467;SDS011;13384;24.794;110.498;2023-07-13T03:07:34;6.15;;;5.82;;
25467;SDS011;13384;24.794;110.498;2023-07-13T03:10:07;6.22;;;5.93;;
25467;SDS011;13384;24.794;110.498;2023-07-13T03:12:44;6.15;;;5.85;;
25467;SDS011;13384;24.794;110.498;2023-07-13T03:15:25;6.60;;;6.20;;
25467;SDS011;13384;24.794;110.498;2023-07-13T03:17:58;6.70;;;6.20;;
25467;SDS011;13384;24.794;110.498;2023-07-13T03:20:32;6.30;;;5.93;;
25467;SDS011;13384;24.794;110.498;2023-07-13T03:23:07;6.30;;;5.90;;
25467;SDS011;13384;24.794;110.498;2023-07-13T03:25:49;6.30;;;6.00;;
25467;SDS011;13384;24.794;110.498;2023-07-13T03:28:31;6.28;;;5.97;;
25467;SDS011;13384;24.794;110.498;2023-07-13T03:31:13;6.50;;;6.20;;
25467;SDS011;13384;24.794;110.498;2023-07-13T03:33:47;6.80;;;6.43;;
25467;SDS011;13384;24.794;110.498;2023-07-13T03:36:20;6.40;;;6.10;;
25467;SDS011;13384;24.794;110.498;2023-07-13T03:39:00;7.90;;;7.50;;
25467;SDS011;13384;24.794;110.498;2023-07-13T03:41:39;6.97;;;6.60;;
25467;SDS011;13384;24.794;110.498;2023-07-13T03:44:12;7.53;;;7.13;;
25467;SDS011;13384;24.794;110.498;2023-07-13T03:46:48;7.50;;;7.10;;
25467;SDS011;13384;24.794;110.498;2023-07-13T03:49:20;6.10;;;5.80;;
25467;SDS011;13384;24.794;110.498;2023-07-13T03:51:52;6.40;;;6.10;;
25467;SDS011;13384;24.794;110.498;2023-07-13T03:54:23;6.40;;;6.03;;
25467;SDS011;13384;24.794;110.498;2023-07-13T03:56:54;6.43;;;6.13;;
25467;SDS011;13384;24.794;110.498;2023-07-13T03:59:27;6.20;;;5.90;;
25467;SDS011;13384;24.794;110.498;2023-07-13T04:01:58;6.35;;;6.05;;
25467;SDS011;13384;24.794;110.498;2023-07-13T04:04:36;6.18;;;5.88;;
25467;SDS011;13384;24.794;110.498;2023-07-13T04:07:10;7.15;;;6.75;;
25467;SDS011;13384;24.794;110.498;2023-07-13T04:09:42;6.43;;;6.13;;
25467;SDS011;13384;24.794;110.498;2023-07-13T04:12:14;6.20;;;5.90;;
25467;SDS011;13384;24.794;110.498;2023-07-13T04:14:46;6.25;;;5.95;;
25467;SDS011;13384;24.794;110.498;2023-07-13T04:17:20;6.13;;;5.82;;
25467;SDS011;13384;24.794;110.498;2023-07-13T04:19:52;5.90;;;5.60;;
25467;SDS011;13384;24.794;110.498;2023-07-13T04:22:24;6.15;;;5.82;;
25467;SDS011;13384;24.794;110.498;2023-07-13T04:24:55;6.10;;;5.80;;
25467;SDS011;13384;24.794;110.498;2023-07-13T04:27:26;6.68;;;6.28;;
25467;SDS011;13384;24.794;110.498;2023-07-13T04:29:58;6.25;;;5.95;;
25467;SDS011;13384;24.794;110.498;2023-07-13T04:32:30;6.18;;;5.88;;
25467;SDS011;13384;24.794;110.498;2023-07-13T04:35:02;6.50;;;6.20;;
25467;SDS011;13384;24.794;110.498;2023-07-13T04:37:34;6.30;;;5.80;;
25467;SDS011;13384;24.794;110.498;2023-07-13T04:40:06;6.03;;;5.72;;
25467;SDS011;13384;24.794;110.498;2023-07-13T04:42:44;6.75;;;6.22;;
25467;SDS011;13384;24.794;110.498;2023-07-13T04:45:16;6.13;;;5.82;;
25467;SDS011;13384;24.794;110.498;2023-07-13T04:47:48;6.28;;;5.88;;
25467;SDS011;13384;24.794;110.498;2023-07-13T04:50:19;6.63;;;6.32;;
25467;SDS011;13384;24.794;110.498;2023-07-13T04:52:52;6.20;;;5.90;;
25467;SDS011;13384;24.794;110.498;2023-07-13T04:55:23;6.60;;;6.20;;
25467;SDS011;13384;24.794;110.498;2023-07-13T04:57:58;6.20;;;5.90;;
25467;SDS011;13384;24.794;110.498;2023-07-13T05:00:30;6.07;;;5.78;;
25467;SDS011;13384;24.794;110.498;2023-07-13T05:03:02;6.00;;;5.70;;
25467;SDS011;13384;24.794;110.498;2023-07-13T05:05:34;6.75;;;6.35;;
25467;SDS011;13384;24.794;110.498;2023-07-13T05:08:05;6.15;;;5.85;;
25467;SDS011;13384;24.794;110.498;2023-07-13T05:10:37;6.10;;;5.80;;
25467;SDS011;13384;24.794;110.498;2023-07-13T05:13:08;6.28;;;5.97;;
25467;SDS011;13384;24.794;110.498;2023-07-13T05:15:39;6.20;;;5.90;;
25467;SDS011;13384;24.794;110.498;2023-07-13T05:18:11;6.30;;;6.00;;
25467;SDS011;13384;24.794;110.498;2023-07-13T05:20:42;6.15;;;5.85;;
25467;SDS011;13384;24.794;110.498;2023-07-13T05:23:14;5.82;;;5.53;;
25467;SDS011;13384;24.794;110.498;2023-07-13T05:25:45;5.80;;;5.50;;
25467;SDS011;13384;24.794;110.498;2023-07-13T05:28:16;6.03;;;5.72;;
25467;SDS011;13384;24.794;110.498;2023-07-13T05:30:48;5.57;;;5.38;;
25467;SDS011;13384;24.794;110.498;2023-07-13T05:33:20;6.30;;;6.00;;
25467;SDS011;13384;24.794;110.498;2023-07-13T05:35:52;6.15;;;5.85;;
25467;SDS011;13384;24.794;110.498;2023-07-13T05:38:23;5.95;;;5.70;;
25467;SDS011;13384;24.794;110.498;2023-07-13T05:40:55;6.32;;;6.03;;
25467;SDS011;13384;24.794;110.498;2023-07-13T05:43:30;6.47;;;6.18;;
25467;SDS011;13384;24.794;110.498;2023-07-13T05:46:02;6.20;;;5.90;;
25467;SDS011;13384;24.794;110.498;2023-07-13T05:48:33;6.30;;;6.00;;
25467;SDS011;13384;24.794;110.498;2023-07-13T05:51:04;6.20;;;5.90;;
25467;SDS011;13384;24.794;110.498;2023-07-13T05:53:35;6.75;;;6.35;;
25467;SDS011;13384;24.794;110.498;2023-07-13T05:56:07;6.80;;;6.50;;
25467;SDS011;13384;24.794;110.498;2023-07-13T05:58:38;6.95;;;6.63;;
25467;SDS011;13384;24.794;110.498;2023-07-13T06:01:10;6.53;;;6.20;;
25467;SDS011;13384;24.794;110.498;2023-07-13T06:03:44;6.72;;;6.43;;
25467;SDS011;13384;24.794;110.498;2023-07-13T06:06:15;7.15;;;6.75;;
25467;SDS011;13384;24.794;110.498;2023-07-13T06:08:47;6.90;;;6.60;;
25467;SDS011;13384;24.794;110.498;2023-07-13T06:11:19;6.38;;;6.07;;
25467;SDS011;13384;24.794;110.498;2023-07-13T06:13:53;7.25;;;6.85;;
25467;SDS011;13384;24.794;110.498;2023-07-13T06:16:24;7.03;;;6.63;;
25467;SDS011;13384;24.794;110.498;2023-07-13T06:18:56;6.60;;;6.30;;
25467;SDS011;13384;24.794;110.498;2023-07-13T06:21:27;6.70;;;6.30;;
25467;SDS011;13384;24.794;110.498;2023-07-13T06:23:59;6.72;;;6.43;;
25467;SDS011;13384;24.794;110.498;2023-07-13T06:26:30;6.60;;;6.30;;
25467;SDS011;13384;24.794;110.498;2023-07-13T06:29:02;6.57;;;6.28;;
25467;SDS011;13384;24.794;110.498;2023-07-13T06:31:34;6.43;;;6.13;;
25467;SDS011;13384;24.794;110.498;2023-07-13T06:34:06;6.82;;;6.32;;
25467;SDS011;13384;24.794;110.498;2023-07-13T06:36:37;6.35;;;6.05;;
25467;SDS011;13384;24.794;110.498;2023-07-13T06:39:09;6.00;;;5.70;;
25467;SDS011;13384;24.794;110.498;2023-07-13T06:41:41;5.93;;;5.63;;
25467;SDS011;13384;24.794;110.498;2023-07-13T06:44:14;6.35;;;6.05;;
25467;SDS011;13384;24.794;110.498;2023-07-13T06:46:45;5.93;;;5.63;;
25467;SDS011;13384;24.794;110.498;2023-07-13T06:49:25;6.30;;;6.00;;
25467;SDS011;13384;24.794;110.498;2023-07-13T06:51:56;6.22;;;5.93;;
25467;SDS011;13384;24.794;110.498;2023-07-13T06:54:28;6.20;;;5.80;;
25467;SDS011;13384;24.794;110.498;2023-07-13T06:56:59;6.70;;;6.20;;
25467;SDS011;13384;24.794;110.498;2023-07-13T06:59:31;6.50;;;6.00;;
25467;SDS011;13384;24.794;110.498;2023-07-13T07:02:02;6.25;;;5.93;;
25467;SDS011;13384;24.794;110.498;2023-07-13T07:04:34;6.18;;;5.88;;
25467;SDS011;13384;24.794;110.498;2023-07-13T07:09:49;6.40;;;6.10;;
25467;SDS011;13384;24.794;110.498;2023-07-13T07:12:20;6.53;;;6.13;;
25467;SDS011;13384;24.794;110.498;2023-07-13T07:14:52;6.40;;;6.00;;
25467;SDS011;13384;24.794;110.498;2023-07-13T07:17:23;14.27;;;7.00;;
25467;SDS011;13384;24.794;110.498;2023-07-13T07:19:56;6.50;;;6.10;;
25467;SDS011;13384;24.794;110.498;2023-07-13T07:22:27;6.50;;;6.10;;
25467;SDS011;13384;24.794;110.498;2023-07-13T07:25:00;6.85;;;6.35;;
25467;SDS011;13384;24.794;110.498;2023-07-13T07:27:31;6.63;;;6.13;;
25467;SDS011;13384;24.794;110.498;2023-07-13T07:30:06;6.50;;;6.13;;
25467;SDS011;13384;24.794;110.498;2023-07-13T07:32:40;6.30;;;5.90;;
25467;SDS011;13384;24.794;110.498;2023-07-13T07:35:15;6.00;;;5.72;;
25467;SDS011;13384;24.794;110.498;2023-07-13T07:37:46;7.15;;;6.65;;
25467;SDS011;13384;24.794;110.498;2023-07-13T07:40:18;6.20;;;5.90;;
25467;SDS011;13384;24.794;110.498;2023-07-13T07:42:53;6.72;;;6.32;;
25467;SDS011;13384;24.794;110.498;2023-07-13T07:45:26;6.20;;;5.90;;
25467;SDS011;13384;24.794;110.498;2023-07-13T07:47:58;7.00;;;6.50;;
25467;SDS011;13384;24.794;110.498;2023-07-13T07:50:33;6.03;;;5.72;;
25467;SDS011;13384;24.794;110.498;2023-07-13T07:53:05;6.75;;;6.30;;
25467;SDS011;13384;24.794;110.498;2023-07-13T07:55:39;6.90;;;6.40;;
25467;SDS011;13384;24.794;110.498;2023-07-13T07:58:13;7.25;;;6.65;;
25467;SDS011;13384;24.794;110.498;2023-07-13T08:01:05;6.05;;;5.75;;
25467;SDS011;13384;24.794;110.498;2023-07-13T08:03:40;6.38;;;5.97;;
25467;SDS011;13384;24.794;110.498;2023-07-13T08:06:14;6.45;;;6.00;;
25467;SDS011;13384;24.794;110.498;2023-07-13T08:09:05;6.38;;;5.97;;
25467;SDS011;13384;24.794;110.498;2023-07-13T08:11:37;6.78;;;6.28;;
25467;SDS011;13384;24.794;110.498;2023-07-13T08:14:18;6.20;;;5.80;;
25467;SDS011;13384;24.794;110.498;2023-07-13T08:16:50;6.18;;;5.65;;
25467;SDS011;13384;24.794;110.498;2023-07-13T08:19:21;6.57;;;6.15;;
25467;SDS011;13384;24.794;110.498;2023-07-13T08:21:52;6.10;;;5.80;;
25467;SDS011;13384;24.794;110.498;2023-07-13T08:24:24;5.90;;;5.60;;
25467;SDS011;13384;24.794;110.498;2023-07-13T08:26:55;5.93;;;5.63;;
25467;SDS011;13384;24.794;110.498;2023-07-13T08:29:27;6.25;;;5.85;;
25467;SDS011;13384;24.794;110.498;2023-07-13T08:32:01;6.07;;;5.78;;
25467;SDS011;13384;24.794;110.498;2023-07-13T08:34:33;6.10;;;5.80;;
25467;SDS011;13384;24.794;110.498;2023-07-13T08:37:05;6.07;;;5.78;;
25467;SDS011;13384;24.794;110.498;2023-07-13T08:39:43;5.93;;;5.63;;
25467;SDS011;13384;24.794;110.498;2023-07-13T08:45:21;6.15;;;5.75;;
25467;SDS011;13384;24.794;110.498;2023-07-13T08:50:34;5.97;;;5.68;;
25467;SDS011;13384;24.794;110.498;2023-07-13T08:53:31;6.30;;;5.80;;
25467;SDS011;13384;24.794;110.498;2023-07-13T08:56:11;6.35;;;6.05;;
25467;SDS011;13384;24.794;110.498;2023-07-13T08:58:56;5.93;;;5.63;;
25467;SDS011;13384;24.794;110.498;2023-07-13T09:01:38;6.00;;;5.70;;
25467;SDS011;13384;24.794;110.498;2023-07-13T09:04:28;5.78;;;5.47;;
25467;SDS011;13384;24.794;110.498;2023-07-13T09:13:15;5.82;;;5.53;;
25467;SDS011;13384;24.794;110.498;2023-07-13T09:16:05;6.40;;;6.00;;
25467;SDS011;13384;24.794;110.498;2023-07-13T09:18:41;6.05;;;5.72;;
25467;SDS011;13384;24.794;110.498;2023-07-13T09:21:23;5.95;;;5.60;;
25467;SDS011;13384;24.794;110.498;2023-07-13T09:27:00;6.20;;;5.90;;
25467;SDS011;13384;24.794;110.498;2023-07-13T09:29:34;6.18;;;5.88;;
25467;SDS011;13384;24.794;110.498;2023-07-13T09:32:07;6.03;;;5.73;;
25467;SDS011;13384;24.794;110.498;2023-07-13T09:34:42;5.85;;;5.55;;
25467;SDS011;13384;24.794;110.498;2023-07-13T09:37:20;6.07;;;5.78;;
25467;SDS011;13384;24.794;110.498;2023-07-13T09:39:57;9.45;;;8.73;;
25467;SDS011;13384;24.794;110.498;2023-07-13T09:42:32;5.95;;;5.65;;
25467;SDS011;13384;24.794;110.498;2023-07-13T09:45:10;6.35;;;5.88;;
25467;SDS011;13384;24.794;110.498;2023-07-13T09:48:03;5.72;;;5.43;;
25467;SDS011;13384;24.794;110.498;2023-07-13T09:50:37;5.85;;;5.60;;
25467;SDS011;13384;24.794;110.498;2023-07-13T09:53:13;8.40;;;7.90;;
25467;SDS011;13384;24.794;110.498;2023-07-13T09:55:51;6.55;;;6.15;;
25467;SDS011;13384;24.794;110.498;2023-07-13T09:58:24;6.90;;;6.55;;
25467;SDS011;13384;24.794;110.498;2023-07-13T10:01:01;6.05;;;5.75;;
25467;SDS011;13384;24.794;110.498;2023-07-13T10:03:37;6.95;;;6.55;;
25467;SDS011;13384;24.794;110.498;2023-07-13T10:06:11;6.55;;;6.25;;
25467;SDS011;13384;24.794;110.498;2023-07-13T10:08:45;6.20;;;5.90;;
25467;SDS011;13384;24.794;110.498;2023-07-13T10:11:24;6.63;;;6.22;;
25467;SDS011;13384;24.794;110.498;2023-07-13T10:14:11;6.63;;;6.32;;
25467;SDS011;13384;24.794;110.498;2023-07-13T10:16:59;6.30;;;6.00;;
25467;SDS011;13384;24.794;110.498;2023-07-13T10:25:17;6.78;;;6.47;;
25467;SDS011;13384;24.794;110.498;2023-07-13T10:27:56;6.40;;;6.10;;
25467;SDS011;13384;24.794;110.498;2023-07-13T10:30:38;7.05;;;6.65;;
25467;SDS011;13384;24.794;110.498;2023-07-13T10:33:12;6.45;;;6.05;;
25467;SDS011;13384;24.794;110.498;2023-07-13T10:35:44;6.55;;;6.18;;
25467;SDS011;13384;24.794;110.498;2023-07-13T10:38:22;6.45;;;6.15;;
25467;SDS011;13384;24.794;110.498;2023-07-13T10:43:43;6.45;;;6.15;;
25467;SDS011;13384;24.794;110.498;2023-07-13T10:46:25;6.22;;;5.82;;
25467;SDS011;13384;24.794;110.498;2023-07-13T10:49:02;6.70;;;6.30;;
25467;SDS011;13384;24.794;110.498;2023-07-13T10:51:38;6.60;;;6.20;;
25467;SDS011;13384;24.794;110.498;2023-07-13T10:57:19;6.75;;;6.35;;
25467;SDS011;13384;24.794;110.498;2023-07-13T11:02:59;6.47;;;6.15;;
25467;SDS011;13384;24.794;110.498;2023-07-13T11:05:32;6.53;;;6.22;;
25467;SDS011;13384;24.794;110.498;2023-07-13T11:08:33;8.27;;;7.50;;
25467;SDS011;13384;24.794;110.498;2023-07-13T11:13:59;7.13;;;6.80;;
25467;SDS011;13384;24.794;110.498;2023-07-13T11:16:52;7.18;;;6.78;;
25467;SDS011;13384;24.794;110.498;2023-07-13T11:19:26;6.70;;;6.30;;
25467;SDS011;13384;24.794;110.498;2023-07-13T11:24:51;7.50;;;7.00;;
25467;SDS011;13384;24.794;110.498;2023-07-13T11:27:38;6.67;;;6.27;;
25467;SDS011;13384;24.794;110.498;2023-07-13T11:33:03;6.60;;;6.25;;
25467;SDS011;13384;24.794;110.498;2023-07-13T11:36:06;6.65;;;6.20;;
25467;SDS011;13384;24.794;110.498;2023-07-13T11:38:47;6.75;;;6.45;;
25467;SDS011;13384;24.794;110.498;2023-07-13T11:41:31;6.82;;;6.45;;
25467;SDS011;13384;24.794;110.498;2023-07-13T11:44:08;6.25;;;5.95;;
25467;SDS011;13384;24.794;110.498;2023-07-13T11:46:51;6.55;;;6.25;;
25467;SDS011;13384;24.794;110.498;2023-07-13T11:49:25;6.88;;;6.47;;
25467;SDS011;13384;24.794;110.498;2023-07-13T11:52:00;7.05;;;6.65;;
25467;SDS011;13384;24.794;110.498;2023-07-13T11:54:33;6.82;;;6.43;;
25467;SDS011;13384;24.794;110.498;2023-07-13T12:00:09;6.95;;;6.55;;
25467;SDS011;13384;24.794;110.498;2023-07-13T12:02:45;6.50;;;6.20;;
25467;SDS011;13384;24.794;110.498;2023-07-13T12:05:23;6.90;;;6.50;;
25467;SDS011;13384;24.794;110.498;2023-07-13T12:07:55;6.68;;;6.32;;
25467;SDS011;13384;24.794;110.498;2023-07-13T12:10:33;6.70;;;6.30;;
25467;SDS011;13384;24.794;110.498;2023-07-13T12:13:05;6.80;;;6.50;;
25467;SDS011;13384;24.794;110.498;2023-07-13T12:15:43;6.45;;;6.15;;
25467;SDS011;13384;24.794;110.498;2023-07-13T12:18:19;6.60;;;6.30;;
25467;SDS011;13384;24.794;110.498;2023-07-13T12:21:10;6.20;;;5.90;;
25467;SDS011;13384;24.794;110.498;2023-07-13T12:23:47;7.03;;;6.55;;
25467;SDS011;13384;24.794;110.498;2023-07-13T12:26:20;6.50;;;6.20;;
25467;SDS011;13384;24.794;110.498;2023-07-13T12:28:53;6.43;;;6.13;;
25467;SDS011;13384;24.794;110.498;2023-07-13T12:31:29;6.60;;;6.25;;
25467;SDS011;13384;24.794;110.498;2023-07-13T12:34:19;6.72;;;6.43;;
25467;SDS011;13384;24.794;110.498;2023-07-13T12:36:53;6.35;;;5.90;;
25467;SDS011;13384;24.794;110.498;2023-07-13T12:39:46;6.53;;;6.20;;
25467;SDS011;13384;24.794;110.498;2023-07-13T12:45:12;6.70;;;6.30;;
25467;SDS011;13384;24.794;110.498;2023-07-13T12:47:52;7.07;;;6.68;;
25467;SDS011;13384;24.794;110.498;2023-07-13T12:50:39;6.85;;;6.45;;
25467;SDS011;13384;24.794;110.498;2023-07-13T12:53:16;6.70;;;6.40;;
25467;SDS011;13384;24.794;110.498;2023-07-13T12:55:58;7.00;;;6.60;;
25467;SDS011;13384;24.794;110.498;2023-07-13T12:58:41;7.13;;;6.72;;
25467;SDS011;13384;24.794;110.498;2023-07-13T13:01:28;6.55;;;6.15;;
25467;SDS011;13384;24.794;110.498;2023-07-13T13:04:03;7.00;;;6.60;;
25467;SDS011;13384;24.794;110.498;2023-07-13T13:06:36;6.90;;;6.50;;
25467;SDS011;13384;24.794;110.498;2023-07-13T13:09:10;6.85;;;6.55;;
25467;SDS011;13384;24.794;110.498;2023-07-13T13:11:45;7.05;;;6.65;;
25467;SDS011;13384;24.794;110.498;2023-07-13T13:14:29;7.15;;;6.75;;
25467;SDS011;13384;24.794;110.498;2023-07-13T13:17:04;6.63;;;6.22;;
25467;SDS011;13384;24.794;110.498;2023-07-13T13:19:48;6.85;;;6.45;;
25467;SDS011;13384;24.794;110.498;2023-07-13T13:24:53;7.03;;;6.63;;
25467;SDS011;13384;24.794;110.498;2023-07-13T13:27:45;7.30;;;6.90;;
25467;SDS011;13384;24.794;110.498;2023-07-13T13:30:17;7.30;;;6.90;;
25467;SDS011;13384;24.794;110.498;2023-07-13T13:32:49;7.20;;;6.80;;
25467;SDS011;13384;24.794;110.498;2023-07-13T13:35:21;7.25;;;6.85;;
25467;SDS011;13384;24.794;110.498;2023-07-13T13:37:52;6.70;;;6.30;;
25467;SDS011;13384;24.794;110.498;2023-07-13T13:40:27;6.90;;;6.50;;
25467;SDS011;13384;24.794;110.498;2023-07-13T13:43:00;7.20;;;6.80;;
25467;SDS011;13384;24.794;110.498;2023-07-13T13:45:32;7.30;;;6.80;;
25467;SDS011;13384;24.794;110.498;2023-07-13T13:48:04;7.28;;;6.78;;
25467;SDS011;13384;24.794;110.498;2023-07-13T13:50:35;7.07;;;6.68;;
25467;SDS011;13384;24.794;110.498;2023-07-13T13:53:09;7.50;;;7.03;;
25467;SDS011;13384;24.794;110.498;2023-07-13T13:55:44;7.38;;;6.93;;
25467;SDS011;13384;24.794;110.498;2023-07-13T13:58:19;8.23;;;7.72;;
25467;SDS011;13384;24.794;110.498;2023-07-13T14:00:53;7.90;;;7.30;;
25467;SDS011;13384;24.794;110.498;2023-07-13T14:06:12;7.63;;;7.20;;
25467;SDS011;13384;24.794;110.498;2023-07-13T14:08:46;7.45;;;7.00;;
25467;SDS011;13384;24.794;110.498;2023-07-13T14:11:18;7.80;;;7.30;;
25467;SDS011;13384;24.794;110.498;2023-07-13T14:14:17;7.63;;;7.13;;
25467;SDS011;13384;24.794;110.498;2023-07-13T14:16:55;7.28;;;6.88;;
25467;SDS011;13384;24.794;110.498;2023-07-13T14:19:27;7.90;;;7.38;;
25467;SDS011;13384;24.794;110.498;2023-07-13T14:21:59;7.80;;;7.30;;
25467;SDS011;13384;24.794;110.498;2023-07-13T14:24:30;7.30;;;6.90;;
25467;SDS011;13384;24.794;110.498;2023-07-13T14:27:19;7.90;;;7.40;;
25467;SDS011;13384;24.794;110.498;2023-07-13T14:29:51;7.90;;;7.40;;
25467;SDS011;13384;24.794;110.498;2023-07-13T14:34:57;7.35;;;6.95;;
25467;SDS011;13384;24.794;110.498;2023-07-13T14:37:30;7.93;;;7.43;;
25467;SDS011;13384;24.794;110.498;2023-07-13T14:40:11;7.80;;;7.30;;
25467;SDS011;13384;24.794;110.498;2023-07-13T14:42:44;8.50;;;7.90;;
25467;SDS011;13384;24.794;110.498;2023-07-13T14:45:17;8.70;;;8.20;;
25467;SDS011;13384;24.794;110.498;2023-07-13T14:47:50;8.35;;;7.85;;
25467;SDS011;13384;24.794;110.498;2023-07-13T14:50:27;8.95;;;8.27;;
25467;SDS011;13384;24.794;110.498;2023-07-13T14:53:22;8.65;;;8.05;;
25467;SDS011;13384;24.794;110.498;2023-07-13T14:56:00;9.43;;;8.73;;
25467;SDS011;13384;24.794;110.498;2023-07-13T14:58:31;9.52;;;8.93;;
25467;SDS011;13384;24.794;110.498;2023-07-13T15:01:07;9.30;;;8.60;;
25467;SDS011;13384;24.794;110.498;2023-07-13T15:03:48;9.65;;;8.85;;
25467;SDS011;13384;24.794;110.498;2023-07-13T15:06:21;8.98;;;8.38;;
25467;SDS011;13384;24.794;110.498;2023-07-13T15:08:54;9.43;;;8.80;;
25467;SDS011;13384;24.794;110.498;2023-07-13T15:11:25;9.40;;;8.70;;
25467;SDS011;13384;24.794;110.498;2023-07-13T15:13:56;9.93;;;9.23;;
25467;SDS011;13384;24.794;110.498;2023-07-13T15:16:28;9.82;;;9.02;;
25467;SDS011;13384;24.794;110.498;2023-07-13T15:18:59;9.88;;;9.18;;
25467;SDS011;13384;24.794;110.498;2023-07-13T15:21:32;9.25;;;8.63;;
25467;SDS011;13384;24.794;110.498;2023-07-13T15:24:04;8.88;;;8.27;;
25467;SDS011;13384;24.794;110.498;2023-07-13T15:26:53;9.60;;;8.90;;
25467;SDS011;13384;24.794;110.498;2023-07-13T15:29:25;9.25;;;8.65;;
25467;SDS011;13384;24.794;110.498;2023-07-13T15:31:56;9.38;;;8.68;;
25467;SDS011;13384;24.794;110.498;2023-07-13T15:34:28;9.50;;;8.80;;
25467;SDS011;13384;24.794;110.498;2023-07-13T15:37:00;9.25;;;8.60;;
25467;SDS011;13384;24.794;110.498;2023-07-13T15:39:31;9.27;;;8.60;;
25467;SDS011;13384;24.794;110.498;2023-07-13T15:42:36;9.48;;;8.77;;
25467;SDS011;13384;24.794;110.498;2023-07-13T15:45:23;8.85;;;8.25;;
25467;SDS011;13384;24.794;110.498;2023-07-13T15:47:54;9.02;;;8.35;;
25467;SDS011;13384;24.794;110.498;2023-07-13T15:50:29;8.73;;;8.13;;
25467;SDS011;13384;24.794;110.498;2023-07-13T15:53:18;9.20;;;8.60;;
25467;SDS011;13384;24.794;110.498;2023-07-13T15:55:52;8.63;;;8.02;;
25467;SDS011;13384;24.794;110.498;2023-07-13T15:58:27;9.15;;;8.55;;
25467;SDS011;13384;24.794;110.498;2023-07-13T16:01:00;9.15;;;8.55;;
25467;SDS011;13384;24.794;110.498;2023-07-13T16:03:32;9.57;;;8.88;;